createdAt,value
2023-04-18T00:02:23.667Z,12.89
2023-04-18T00:04:50.678Z,12.89
2023-04-18T00:07:18.065Z,12.87
2023-04-18T00:09:45.043Z,12.88
2023-04-18T00:12:12.061Z,12.86
2023-04-18T00:14:39.042Z,12.84
2023-04-18T00:17:10.246Z,12.83
2023-04-18T00:19:41.623Z,12.83
2023-04-18T00:22:08.751Z,12.81
2023-04-18T00:24:35.503Z,12.78
2023-04-18T00:27:02.389Z,12.76
2023-04-18T00:29:31.599Z,12.72
2023-04-18T00:31:58.528Z,12.72
2023-04-18T00:34:25.363Z,12.72
2023-04-18T00:36:52.128Z,12.72
2023-04-18T00:39:18.882Z,12.71
2023-04-18T00:41:45.732Z,12.67
2023-04-18T00:44:12.685Z,12.64
2023-04-18T00:46:39.742Z,12.61
2023-04-18T00:49:06.921Z,12.56
2023-04-18T00:51:35.523Z,12.53
2023-04-18T00:54:05.985Z,12.48
2023-04-18T00:56:32.854Z,12.42
2023-04-18T00:58:59.727Z,12.38
2023-04-18T01:01:26.681Z,12.34
2023-04-18T01:03:53.575Z,12.29
2023-04-18T01:06:20.608Z,12.22
2023-04-18T01:08:47.469Z,12.14
2023-04-18T01:11:14.257Z,12.10
2023-04-18T01:13:41.057Z,12.06
2023-04-18T01:16:07.954Z,12.04
2023-04-18T01:18:35.078Z,12.01
2023-04-18T01:21:02.354Z,12.01
2023-04-18T01:23:29.779Z,11.99
2023-04-18T01:25:56.762Z,11.99
2023-04-18T01:28:23.685Z,11.99
2023-04-18T01:30:50.496Z,12.01
2023-04-18T01:33:17.438Z,12.02
2023-04-18T01:35:44.231Z,12.03
2023-04-18T01:38:11.312Z,12.05
2023-04-18T01:40:38.078Z,12.07
2023-04-18T01:43:04.864Z,12.08
2023-04-18T01:45:31.642Z,12.08
2023-04-18T01:47:58.484Z,12.09
2023-04-18T01:50:25.439Z,12.07
2023-04-18T01:52:52.295Z,12.05
2023-04-18T01:55:19.228Z,12.02
2023-04-18T01:57:46.298Z,12.00
2023-04-18T02:00:13.647Z,11.97
2023-04-18T02:02:40.834Z,11.94
2023-04-18T02:05:08.318Z,11.90
2023-04-18T02:07:35.111Z,11.86
2023-04-18T02:10:03.217Z,11.80
2023-04-18T02:12:30.217Z,11.78
2023-04-18T02:14:56.988Z,11.75
2023-04-18T02:17:24.148Z,11.72
2023-04-18T02:19:51.601Z,11.69
2023-04-18T02:22:18.539Z,11.66
2023-04-18T02:24:45.446Z,11.63
2023-04-18T02:27:12.344Z,11.57
2023-04-18T02:29:39.373Z,11.54
2023-04-18T02:32:06.691Z,11.51
2023-04-18T02:34:33.677Z,11.50
2023-04-18T02:37:00.610Z,11.49
2023-04-18T02:39:27.497Z,11.47
2023-04-18T02:41:54.272Z,11.45
2023-04-18T02:44:21.045Z,11.45
2023-04-18T02:46:47.819Z,11.42
2023-04-18T02:49:14.692Z,11.39
2023-04-18T02:51:41.506Z,11.39
2023-04-18T02:54:08.269Z,11.36
2023-04-18T02:56:39.760Z,11.36
2023-04-18T02:59:07.205Z,11.36
2023-04-18T03:01:34.280Z,11.37
2023-04-18T03:04:01.072Z,11.37
2023-04-18T03:06:27.833Z,11.36
2023-04-18T03:08:55.695Z,11.35
2023-04-18T03:11:22.504Z,11.34
2023-04-18T03:13:49.357Z,11.34
2023-04-18T03:18:43.338Z,11.36
2023-04-18T03:21:10.389Z,11.34
2023-04-18T03:23:37.417Z,11.35
2023-04-18T03:26:07.134Z,11.36
2023-04-18T03:28:34.301Z,11.36
2023-04-18T03:31:01.238Z,11.38
2023-04-18T03:33:28.768Z,11.40
2023-04-18T03:35:55.534Z,11.41
2023-04-18T03:38:22.404Z,11.41
2023-04-18T03:40:49.255Z,11.44
2023-04-18T03:43:16.083Z,11.47
2023-04-18T03:45:44.155Z,11.50
2023-04-18T03:48:10.918Z,11.50
2023-04-18T03:50:37.736Z,11.50
2023-04-18T03:53:04.554Z,11.55
2023-04-18T03:55:31.391Z,11.56
2023-04-18T03:57:59.094Z,11.57
2023-04-18T04:00:26.697Z,11.59
2023-04-18T04:02:53.643Z,11.59
2023-04-18T04:05:20.653Z,11.57
2023-04-18T04:07:47.611Z,11.58
2023-04-18T04:10:14.401Z,11.58
2023-04-18T04:12:41.146Z,11.57
2023-04-18T04:15:08.469Z,11.60
2023-04-18T04:17:35.413Z,11.59
2023-04-18T04:20:02.557Z,11.60
2023-04-18T04:22:29.365Z,11.61
2023-04-18T04:24:57.673Z,11.61
2023-04-18T04:27:25.011Z,11.61
2023-04-18T04:29:52.289Z,11.60
2023-04-18T04:32:20.265Z,11.59
2023-04-18T04:34:47.228Z,11.61
2023-04-18T04:37:14.141Z,11.63
2023-04-18T04:39:41.090Z,11.63
2023-04-18T04:42:07.920Z,11.64
2023-04-18T04:44:35.620Z,11.65
2023-04-18T04:47:02.428Z,11.65
2023-04-18T04:49:29.244Z,11.65
2023-04-18T04:51:56.032Z,11.68
2023-04-18T04:54:22.954Z,11.67
2023-04-18T04:56:49.727Z,11.69
2023-04-18T04:59:16.761Z,11.71
2023-04-18T05:01:43.669Z,11.72
2023-04-18T05:04:10.738Z,11.74
2023-04-18T05:06:40.054Z,11.74
2023-04-18T05:09:07.142Z,11.74
2023-04-18T05:11:33.963Z,11.75
2023-04-18T05:14:00.787Z,11.74
2023-04-18T05:16:27.708Z,11.75
2023-04-18T05:18:54.530Z,11.76
2023-04-18T05:21:21.344Z,11.77
2023-04-18T05:23:48.297Z,11.76
2023-04-18T05:26:15.128Z,11.76
2023-04-18T05:28:42.435Z,11.78
2023-04-18T05:31:09.360Z,11.78
2023-04-18T05:33:36.165Z,11.78
2023-04-18T05:36:03.050Z,11.81
2023-04-18T05:38:29.955Z,11.83
2023-04-18T05:41:00.031Z,11.86
2023-04-18T05:43:26.792Z,11.87
2023-04-18T05:45:54.737Z,11.86
2023-04-18T05:48:25.020Z,11.86
2023-04-18T05:50:51.819Z,11.83
2023-04-18T05:53:19.011Z,11.81
2023-04-18T05:55:48.528Z,11.80
2023-04-18T05:58:15.830Z,11.79
2023-04-18T06:00:43.047Z,11.81
2023-04-18T06:03:11.292Z,11.83
2023-04-18T06:05:40.943Z,11.80
2023-04-18T06:08:08.061Z,11.81
2023-04-18T06:10:36.462Z,11.82
2023-04-18T06:13:05.362Z,11.82
2023-04-18T06:15:32.151Z,11.81
2023-04-18T06:17:59.062Z,11.79
2023-04-18T06:20:26.045Z,11.82
2023-04-18T06:22:52.841Z,11.86
2023-04-18T06:25:19.842Z,11.86
2023-04-18T06:27:46.700Z,11.86
2023-04-18T06:30:14.290Z,11.89
2023-04-18T06:32:41.220Z,11.91
2023-04-18T06:35:08.325Z,11.90
2023-04-18T06:37:35.189Z,11.86
2023-04-18T06:40:03.608Z,11.86
2023-04-18T06:42:30.505Z,11.87
2023-04-18T06:44:57.506Z,11.86
2023-04-18T06:47:24.450Z,11.87
2023-04-18T06:49:51.290Z,11.90
2023-04-18T06:52:18.133Z,11.91
2023-04-18T06:54:44.937Z,11.95
2023-04-18T06:57:11.725Z,11.97
2023-04-18T06:59:38.561Z,11.96
2023-04-18T07:02:05.507Z,12.02
2023-04-18T07:04:32.355Z,12.07
2023-04-18T07:06:59.291Z,12.11
2023-04-18T07:09:26.130Z,12.14
2023-04-18T07:11:53.040Z,12.12
2023-04-18T07:14:24.542Z,12.15
2023-04-18T07:16:51.647Z,12.17
2023-04-18T07:19:18.461Z,12.25
2023-04-18T07:21:45.895Z,12.35
2023-04-18T07:24:13.358Z,12.48
2023-04-18T07:26:40.680Z,12.62
2023-04-18T07:29:07.502Z,12.75
2023-04-18T07:31:34.825Z,12.86
2023-04-18T07:34:01.579Z,12.93
2023-04-18T07:36:28.398Z,12.95
2023-04-18T07:38:55.289Z,12.98
2023-04-18T07:41:22.080Z,13.03
2023-04-18T07:43:48.840Z,13.06
2023-04-18T07:46:15.789Z,13.12
2023-04-18T07:48:42.685Z,13.17
2023-04-18T07:51:09.534Z,13.23
2023-04-18T07:53:36.615Z,13.29
2023-04-18T07:56:03.768Z,13.35
2023-04-18T07:58:30.510Z,13.45
2023-04-18T08:00:57.334Z,13.57
2023-04-18T08:03:24.543Z,13.66
2023-04-18T08:05:51.842Z,13.78
2023-04-18T08:08:18.696Z,13.93
2023-04-18T08:10:45.945Z,14.11
2023-04-18T08:13:15.970Z,14.26
2023-04-18T08:15:42.897Z,14.37
2023-04-18T08:18:09.705Z,14.48
2023-04-18T08:20:37.124Z,14.61
2023-04-18T08:23:08.560Z,14.71
2023-04-18T08:25:36.706Z,14.76
2023-04-18T08:28:04.094Z,14.80
2023-04-18T08:30:31.185Z,14.84
2023-04-18T08:32:59.556Z,14.89
2023-04-18T08:35:26.516Z,14.95
2023-04-18T08:37:53.322Z,15.00
2023-04-18T08:40:20.679Z,14.99
2023-04-18T08:42:47.878Z,14.98
2023-04-18T08:45:14.759Z,15.00
2023-04-18T08:47:42.429Z,15.03
2023-04-18T08:50:10.710Z,15.02
2023-04-18T08:52:40.168Z,14.99
2023-04-18T08:55:08.156Z,14.92
2023-04-18T08:57:36.168Z,14.89
2023-04-18T09:00:09.936Z,14.84
2023-04-18T09:02:43.623Z,14.81
2023-04-18T09:05:16.449Z,14.83
2023-04-18T09:07:43.363Z,14.89
2023-04-18T09:10:10.741Z,14.97
2023-04-18T09:12:52.249Z,15.08
2023-04-18T09:15:27.007Z,15.15
2023-04-18T09:17:57.718Z,15.15
2023-04-18T09:20:35.156Z,15.11
2023-04-18T09:23:05.841Z,15.06
2023-04-18T09:25:48.043Z,15.09
2023-04-18T09:28:29.785Z,15.11
2023-04-18T09:31:14.391Z,15.12
2023-04-18T09:33:52.714Z,15.16
2023-04-18T09:36:27.943Z,15.16
2023-04-18T09:38:56.894Z,15.17
2023-04-18T09:41:24.238Z,15.21
2023-04-18T09:44:14.021Z,15.26
2023-04-18T09:46:43.340Z,15.22
2023-04-18T09:49:12.440Z,15.18
2023-04-18T09:51:42.005Z,15.19
2023-04-18T09:54:20.662Z,15.21
2023-04-18T09:56:50.458Z,15.21
2023-04-18T09:59:43.800Z,15.30
2023-04-18T10:02:20.850Z,15.36
2023-04-18T10:04:51.233Z,15.41
2023-04-18T10:07:18.393Z,15.48
2023-04-18T10:09:49.518Z,15.58
2023-04-18T10:12:17.505Z,15.63
2023-04-18T10:14:44.944Z,15.67
2023-04-18T10:17:11.888Z,15.73
2023-04-18T10:19:42.086Z,15.81
2023-04-18T10:22:08.980Z,15.87
2023-04-18T10:24:49.635Z,15.95
2023-04-18T10:27:48.384Z,15.99
2023-04-18T10:30:16.515Z,15.99
2023-04-18T10:32:43.640Z,16.02
2023-04-18T10:35:11.291Z,16.08
2023-04-18T10:37:51.694Z,16.12
2023-04-18T10:40:35.084Z,16.13
2023-04-18T10:43:02.001Z,16.18
2023-04-18T10:45:31.231Z,16.25
2023-04-18T10:48:30.137Z,16.36
2023-04-18T10:51:18.475Z,16.43
2023-04-18T10:53:56.447Z,16.51
2023-04-18T10:56:25.948Z,16.57
2023-04-18T10:58:53.409Z,16.64
2023-04-18T11:01:42.377Z,16.72
2023-04-18T11:04:13.979Z,16.73
2023-04-18T11:06:57.110Z,16.75
2023-04-18T11:09:24.628Z,16.78
2023-04-18T11:12:06.137Z,16.86
2023-04-18T11:15:01.521Z,16.92
2023-04-18T11:17:32.862Z,16.96
2023-04-18T11:20:11.451Z,16.93
2023-04-18T11:22:47.761Z,16.88
2023-04-18T11:25:16.308Z,16.82
2023-04-18T11:27:45.556Z,16.73
2023-04-18T11:30:14.390Z,16.68
2023-04-18T11:32:41.803Z,16.66
2023-04-18T11:35:10.649Z,16.67
2023-04-18T11:37:39.457Z,16.63
2023-04-18T11:40:09.350Z,16.63
2023-04-18T11:42:39.168Z,16.66
2023-04-18T11:45:14.288Z,16.67
2023-04-18T11:47:43.260Z,16.68
2023-04-18T11:50:12.422Z,16.69
2023-04-18T11:52:42.385Z,16.69
2023-04-18T11:55:24.729Z,16.72
2023-04-18T11:58:00.439Z,16.83
2023-04-18T12:00:34.477Z,16.88
2023-04-18T12:03:07.861Z,16.88
2023-04-18T12:05:39.545Z,16.96
2023-04-18T12:08:18.322Z,17.02
2023-04-18T12:10:50.815Z,17.06
2023-04-18T12:13:18.654Z,17.02
2023-04-18T12:15:46.933Z,16.99
2023-04-18T12:18:18.240Z,17.00
2023-04-18T12:20:50.769Z,17.02
2023-04-18T12:23:40.285Z,17.01
2023-04-18T12:26:12.138Z,16.97
2023-04-18T12:28:38.928Z,17.04
2023-04-18T12:31:07.470Z,17.09
2023-04-18T12:33:36.640Z,17.07
2023-04-18T12:36:05.367Z,17.05
2023-04-18T12:38:32.179Z,17.00
2023-04-18T12:40:58.998Z,16.95
2023-04-18T12:43:25.852Z,16.96
2023-04-18T12:45:52.732Z,17.01
2023-04-18T12:48:19.588Z,17.04
2023-04-18T12:50:46.350Z,17.09
2023-04-18T12:53:13.106Z,17.17
2023-04-18T12:55:39.907Z,17.25
2023-04-18T12:58:06.681Z,17.30
2023-04-18T13:00:33.617Z,17.29
2023-04-18T13:03:00.906Z,17.33
2023-04-18T13:05:32.054Z,17.37
2023-04-18T13:08:12.718Z,17.45
2023-04-18T13:10:42.760Z,17.46
2023-04-18T13:13:09.589Z,17.45
2023-04-18T13:15:36.566Z,17.44
2023-04-18T13:18:06.156Z,17.44
2023-04-18T13:20:33.981Z,17.47
2023-04-18T13:23:02.837Z,17.48
2023-04-18T13:25:29.761Z,17.45
2023-04-18T13:27:58.252Z,17.42
2023-04-18T13:30:25.467Z,17.39
2023-04-18T13:32:52.446Z,17.41
2023-04-18T13:35:19.308Z,17.46
2023-04-18T13:37:46.256Z,17.48
2023-04-18T13:40:13.424Z,17.45
2023-04-18T13:42:40.360Z,17.48
2023-04-18T13:45:07.717Z,17.58
2023-04-18T13:47:34.812Z,17.66
2023-04-18T13:50:01.756Z,17.67
2023-04-18T13:52:28.705Z,17.66
2023-04-18T13:54:55.552Z,17.65
2023-04-18T13:57:23.128Z,17.78
2023-04-18T13:59:49.980Z,17.96
2023-04-18T14:02:16.937Z,18.06
2023-04-18T14:04:43.957Z,18.12
2023-04-18T14:09:37.869Z,18.32
2023-04-18T14:12:05.105Z,18.41
2023-04-18T14:14:34.677Z,18.51
2023-04-18T14:17:01.560Z,18.59
2023-04-18T14:19:28.353Z,18.70
2023-04-18T14:21:55.144Z,18.69
2023-04-18T14:24:21.997Z,18.68
2023-04-18T14:26:48.797Z,18.69
2023-04-18T14:29:15.906Z,18.75
2023-04-18T14:31:43.022Z,18.85
2023-04-18T14:34:09.906Z,18.94
2023-04-18T14:36:36.803Z,18.96
2023-04-18T14:39:03.676Z,18.99
2023-04-18T14:41:30.888Z,19.01
2023-04-18T14:43:57.708Z,19.01
2023-04-18T14:46:25.266Z,19.05
2023-04-18T14:48:52.088Z,19.08
2023-04-18T14:51:19.197Z,19.11
2023-04-18T14:53:46.080Z,19.12
2023-04-18T14:56:13.560Z,19.11
2023-04-18T14:58:40.355Z,19.07
2023-04-18T15:01:07.161Z,19.02
2023-04-18T15:03:34.150Z,18.96
2023-04-18T15:06:01.048Z,18.91
2023-04-18T15:08:28.008Z,18.85
2023-04-18T15:10:54.796Z,18.82
2023-04-18T15:13:21.562Z,18.83
2023-04-18T15:15:56.567Z,18.89
2023-04-18T15:18:23.513Z,18.97
2023-04-18T15:20:51.227Z,19.03
2023-04-18T15:23:18.122Z,19.02
2023-04-18T15:25:45.623Z,18.97
2023-04-18T15:28:13.697Z,18.91
2023-04-18T15:30:40.657Z,18.92
2023-04-18T15:33:07.760Z,18.98
2023-04-18T15:35:34.595Z,19.07
2023-04-18T15:38:01.463Z,19.07
2023-04-18T15:40:28.234Z,19.05
2023-04-18T15:42:55.993Z,19.04
2023-04-18T15:45:22.895Z,18.99
2023-04-18T15:47:49.673Z,18.97
2023-04-18T15:50:16.617Z,18.92
2023-04-18T15:52:44.005Z,18.92
2023-04-18T15:55:13.063Z,18.88
2023-04-18T15:57:41.660Z,18.84
2023-04-18T16:00:15.710Z,18.82
2023-04-18T16:02:44.171Z,18.78
2023-04-18T16:05:12.402Z,18.73
2023-04-18T16:07:40.457Z,18.70
2023-04-18T16:10:10.680Z,18.65
2023-04-18T16:12:39.517Z,18.61
2023-04-18T16:15:08.405Z,18.55
2023-04-18T16:17:36.321Z,18.52
2023-04-18T16:20:03.719Z,18.49
2023-04-18T16:22:30.591Z,18.45
2023-04-18T16:24:57.466Z,18.40
2023-04-18T16:27:24.247Z,18.34
2023-04-18T16:29:51.326Z,18.29
2023-04-18T16:32:18.152Z,18.26
2023-04-18T16:34:44.977Z,18.21
2023-04-18T16:37:12.038Z,18.17
2023-04-18T16:39:38.812Z,18.11
2023-04-18T16:42:05.718Z,18.05
2023-04-18T16:44:33.140Z,18.01
2023-04-18T16:47:00.085Z,17.98
2023-04-18T16:49:27.033Z,17.93
2023-04-18T16:51:53.844Z,17.91
2023-04-18T16:54:20.616Z,17.88
2023-04-18T16:56:47.509Z,17.87
2023-04-18T16:59:14.340Z,17.87
2023-04-18T17:01:41.180Z,17.88
2023-04-18T17:04:08.033Z,17.89
2023-04-18T17:06:34.822Z,17.89
2023-04-18T17:09:02.027Z,17.87
2023-04-18T17:11:30.017Z,17.88
2023-04-18T17:13:56.781Z,17.86
2023-04-18T17:16:23.622Z,17.83
2023-04-18T17:18:50.370Z,17.81
2023-04-18T17:21:17.164Z,17.80
2023-04-18T17:23:43.982Z,17.77
2023-04-18T17:26:10.809Z,17.76
2023-04-18T17:28:37.615Z,17.74
2023-04-18T17:31:04.543Z,17.73
2023-04-18T17:33:31.824Z,17.72
2023-04-18T17:35:58.809Z,17.70
2023-04-18T17:38:25.753Z,17.67
2023-04-18T17:41:03.168Z,17.66
2023-04-18T17:43:30.205Z,17.65
2023-04-18T17:46:01.350Z,17.65
2023-04-18T17:48:28.161Z,17.64
2023-04-18T17:50:54.974Z,17.63
2023-04-18T17:53:22.217Z,17.63
2023-04-18T17:55:52.051Z,17.63
2023-04-18T17:58:19.880Z,17.61
2023-04-18T18:00:47.165Z,17.60
2023-04-18T18:03:17.584Z,17.60
2023-04-18T18:05:49.076Z,17.58
2023-04-18T18:08:15.888Z,17.56
2023-04-18T18:10:42.850Z,17.56
2023-04-18T18:13:09.611Z,17.55
2023-04-18T18:15:36.369Z,17.54
2023-04-18T18:18:03.182Z,17.52
2023-04-18T18:20:30.670Z,17.52
2023-04-18T18:22:59.620Z,17.53
2023-04-18T18:25:26.974Z,17.51
2023-04-18T18:27:54.470Z,17.52
2023-04-18T18:30:21.312Z,17.53
2023-04-18T18:32:48.277Z,17.53
2023-04-18T18:35:15.213Z,17.52
2023-04-18T18:37:42.001Z,17.51
2023-04-18T18:40:09.411Z,17.49
2023-04-18T18:42:36.800Z,17.48
2023-04-18T18:45:04.390Z,17.46
2023-04-18T18:47:31.215Z,17.43
2023-04-18T18:49:58.027Z,17.40
2023-04-18T18:52:25.134Z,17.38
2023-04-18T18:54:52.905Z,17.37
2023-04-18T18:57:19.657Z,17.35
2023-04-18T18:59:48.059Z,17.32
2023-04-18T19:02:15.000Z,17.30
2023-04-18T19:04:41.935Z,17.28
2023-04-18T19:07:08.788Z,17.28
2023-04-18T19:09:36.812Z,17.25
2023-04-18T19:12:04.872Z,17.24
2023-04-18T19:14:31.598Z,17.22
2023-04-18T19:16:58.381Z,17.19
2023-04-18T19:19:25.588Z,17.17
2023-04-18T19:21:52.349Z,17.14
2023-04-18T19:24:19.189Z,17.11
2023-04-18T19:26:45.986Z,17.09
2023-04-18T19:29:14.101Z,17.03
2023-04-18T19:31:43.485Z,17.02
2023-04-18T19:34:10.867Z,16.96
2023-04-18T19:36:37.769Z,16.94
2023-04-18T19:39:04.575Z,16.90
2023-04-18T19:41:31.441Z,16.88
2023-04-18T19:43:58.255Z,16.85
2023-04-18T19:46:25.037Z,16.83
2023-04-18T19:48:51.848Z,16.82
2023-04-18T19:51:18.721Z,16.82
2023-04-18T19:53:45.787Z,16.81
2023-04-18T19:56:14.128Z,16.78
2023-04-18T19:58:46.069Z,16.76
2023-04-18T20:01:20.202Z,16.73
2023-04-18T20:03:47.769Z,16.72
2023-04-18T20:06:14.680Z,16.71
2023-04-18T20:08:41.681Z,16.71
2023-04-18T20:11:10.336Z,16.71
2023-04-18T20:13:37.843Z,16.69
2023-04-18T20:16:09.016Z,16.69
2023-04-18T20:18:41.360Z,16.67
2023-04-18T20:21:09.978Z,16.65
2023-04-18T20:23:37.324Z,16.65
2023-04-18T20:26:04.395Z,16.62
2023-04-18T20:28:31.689Z,16.60
2023-04-18T20:30:58.531Z,16.60
2023-04-18T20:33:25.456Z,16.57
2023-04-18T20:35:54.120Z,16.57
2023-04-18T20:38:26.004Z,16.57
2023-04-18T20:40:54.134Z,16.56
2023-04-18T20:43:21.329Z,16.54
2023-04-18T20:45:50.949Z,16.55
2023-04-18T20:48:18.310Z,16.52
2023-04-18T20:50:50.780Z,16.49
2023-04-18T20:53:25.920Z,16.46
2023-04-18T20:55:53.084Z,16.43
2023-04-18T20:58:19.908Z,16.40
2023-04-18T21:00:48.151Z,16.39
2023-04-18T21:03:16.536Z,16.39
2023-04-18T21:05:44.559Z,16.37
2023-04-18T21:08:11.390Z,16.35
2023-04-18T21:10:38.415Z,16.34
2023-04-18T21:13:05.202Z,16.32
2023-04-18T21:15:32.038Z,16.30
2023-04-18T21:17:58.898Z,16.28
2023-04-18T21:20:25.768Z,16.27
2023-04-18T21:22:52.527Z,16.25
2023-04-18T21:25:21.135Z,16.24
2023-04-18T21:27:48.019Z,16.22
2023-04-18T21:30:14.834Z,16.20
2023-04-18T21:32:41.634Z,16.20
2023-04-18T21:35:08.949Z,16.20
2023-04-18T21:37:35.781Z,16.19
2023-04-18T21:40:02.562Z,16.15
2023-04-18T21:42:29.355Z,16.12
2023-04-18T21:44:56.109Z,16.10
2023-04-18T21:47:22.950Z,16.06
2023-04-18T21:49:49.758Z,16.03
2023-04-18T21:52:16.552Z,16.00
2023-04-18T21:54:43.414Z,15.97
2023-04-18T21:57:10.170Z,15.94
2023-04-18T21:59:36.899Z,15.91
2023-04-18T22:02:04.850Z,15.89
2023-04-18T22:04:32.005Z,15.85
2023-04-18T22:06:58.801Z,15.82
2023-04-18T22:09:25.642Z,15.79
2023-04-18T22:11:56.465Z,15.76
2023-04-18T22:14:24.660Z,15.73
2023-04-18T22:16:51.597Z,15.68
2023-04-18T22:19:19.198Z,15.65
2023-04-18T22:21:46.285Z,15.61
2023-04-18T22:24:13.293Z,15.56
2023-04-18T22:26:40.881Z,15.52
2023-04-18T22:29:07.685Z,15.48
2023-04-18T22:31:34.535Z,15.44
2023-04-18T22:34:01.297Z,15.40
2023-04-18T22:36:28.308Z,15.37
2023-04-18T22:38:55.202Z,15.32
2023-04-18T22:41:21.957Z,15.29
2023-04-18T22:43:48.787Z,15.27
2023-04-18T22:46:15.772Z,15.24
2023-04-18T22:48:44.670Z,15.26
2023-04-18T22:51:11.649Z,15.23
2023-04-18T22:53:38.433Z,15.22
2023-04-18T22:56:05.584Z,15.22
2023-04-18T22:58:32.629Z,15.23
2023-04-18T23:00:59.810Z,15.20
2023-04-18T23:03:26.728Z,15.19
2023-04-18T23:05:53.572Z,15.17
2023-04-18T23:08:22.418Z,15.13
2023-04-18T23:10:49.194Z,15.11
2023-04-18T23:13:15.945Z,15.09
2023-04-18T23:15:42.770Z,15.06
2023-04-18T23:18:09.580Z,15.03
2023-04-18T23:20:37.757Z,15.01
2023-04-18T23:23:04.574Z,15.00
2023-04-18T23:25:34.615Z,14.99
2023-04-18T23:28:01.428Z,14.95
2023-04-18T23:30:28.207Z,14.94
2023-04-18T23:32:55.183Z,14.92
2023-04-18T23:35:21.982Z,14.89
2023-04-18T23:37:50.045Z,14.88
2023-04-18T23:40:16.803Z,14.86
2023-04-18T23:42:43.897Z,14.85
2023-04-18T23:45:11.280Z,14.83
2023-04-18T23:47:40.663Z,14.79
2023-04-18T23:50:08.456Z,14.76
2023-04-18T23:52:35.361Z,14.73
2023-04-18T23:55:02.417Z,14.69
2023-04-18T23:57:29.235Z,14.64
2023-04-18T23:59:56.014Z,14.60
